Weather at Al Hamra Auxiliary Airport

Public forecast

Using degrees Celsius for public forecast. Weather courtesy of forecast.io.

Closest aviation weather report (METAR) to Al Hamra Auxiliary Airport

Closest report is Hamad International Airport, 85.8 nm (158.9 km) NNW.

2024/04/16 17:00 (retrieved 11 minutes ago)

OTHH 161700Z 31009KT 9999 FEW030 22/16 Q1008 NOSIG

Closest aviation forecast (TAF) to Al Hamra Auxiliary Airport

Closest forecast is Hamad International Airport, 85.8 nm (158.9 km) NNW.

2024/04/16 12:00 (retrieved 5 hours ago)

TAF OTHH 161129Z 1612/1718 36015KT 8000 FEW030 SCT080 TEMPO 1612/1702 36020G35KT 5000 -RA FEW030TCU BKN040 TEMPO 1612/1618 VRB25G40KT 2900 TSRA/DU FEW030CB OVC080 TEMPO 1613/1622 07015KT